createdAt,value
2022-10-11T00:00:03.629Z,2.50
2022-10-11T00:02:09.490Z,2.53
2022-10-11T00:04:14.222Z,2.40
2022-10-11T00:06:19.690Z,3.10
2022-10-11T00:08:24.537Z,2.85
2022-10-11T00:10:31.923Z,2.80
2022-10-11T00:12:36.976Z,2.67
2022-10-11T00:14:41.968Z,2.45
2022-10-11T00:16:47.102Z,2.55
2022-10-11T00:18:51.839Z,2.40
2022-10-11T00:21:04.152Z,2.65
2022-10-11T00:23:09.085Z,4.00
2022-10-11T00:25:15.184Z,3.05
2022-10-11T00:27:22.596Z,3.63
2022-10-11T00:29:27.437Z,3.00
2022-10-11T00:31:35.629Z,3.25
2022-10-11T00:33:40.817Z,3.58
2022-10-11T00:35:45.565Z,4.90
2022-10-11T00:37:50.354Z,4.10
2022-10-11T00:39:55.062Z,4.88
2022-10-11T00:41:59.895Z,4.13
2022-10-11T00:44:16.648Z,3.42
2022-10-11T00:46:33.881Z,3.08
2022-10-11T00:48:42.984Z,3.30
2022-10-11T00:50:47.753Z,3.33
2022-10-11T00:52:58.229Z,4.55
2022-10-11T00:55:07.907Z,3.97
2022-10-11T00:57:17.171Z,5.18
2022-10-11T00:59:27.761Z,5.35
2022-10-11T01:01:32.781Z,6.35
2022-10-11T01:03:38.932Z,5.75
2022-10-11T01:05:44.181Z,4.63
2022-10-11T01:07:50.553Z,4.20
2022-10-11T01:09:55.284Z,4.13
2022-10-11T01:12:03.844Z,3.85
2022-10-11T01:14:37.070Z,3.55
2022-10-11T01:16:50.898Z,3.97
2022-10-11T01:19:05.096Z,5.03
2022-10-11T01:21:19.745Z,6.40
2022-10-11T01:23:45.217Z,4.70
2022-10-11T01:26:14.668Z,3.92
2022-10-11T01:28:44.186Z,4.35
2022-10-11T01:30:54.031Z,4.18
2022-10-11T01:33:07.724Z,4.43
2022-10-11T01:35:19.830Z,3.97
2022-10-11T01:37:30.059Z,4.10
2022-10-11T01:39:39.518Z,4.25
2022-10-11T01:41:49.999Z,3.80
2022-10-11T01:44:00.180Z,4.65
2022-10-11T01:46:08.841Z,5.90
2022-10-11T01:48:16.332Z,5.55
2022-10-11T01:50:39.753Z,4.88
2022-10-11T01:52:48.102Z,4.53
2022-10-11T01:55:10.298Z,4.97
2022-10-11T01:57:45.442Z,4.70
2022-10-11T02:00:03.482Z,5.05
2022-10-11T02:02:32.215Z,4.10
2022-10-11T02:04:45.502Z,4.43
2022-10-11T02:06:56.223Z,4.63
2022-10-11T02:09:09.292Z,4.88
2022-10-11T02:11:22.234Z,3.72
2022-10-11T02:13:31.353Z,3.45
2022-10-11T02:15:39.439Z,3.65
2022-10-11T02:17:51.121Z,3.67
2022-10-11T02:19:59.895Z,4.55
2022-10-11T02:22:08.858Z,4.03
2022-10-11T02:24:19.069Z,4.18
2022-10-11T02:26:26.131Z,4.28
2022-10-11T02:28:34.665Z,3.83
2022-10-11T02:30:40.853Z,3.88
2022-10-11T02:32:50.729Z,3.50
2022-10-11T02:34:58.001Z,3.95
2022-10-11T02:37:08.895Z,4.20
2022-10-11T02:39:20.685Z,5.20
2022-10-11T02:41:31.419Z,5.18
2022-10-11T02:43:41.960Z,5.10
2022-10-11T02:45:51.082Z,4.65
2022-10-11T02:47:59.508Z,4.40
2022-10-11T02:50:04.887Z,4.80
2022-10-11T02:52:09.902Z,4.97
2022-10-11T02:54:14.632Z,5.13
2022-10-11T02:56:19.490Z,4.38
2022-10-11T02:58:25.532Z,5.65
2022-10-11T03:00:30.395Z,5.53
2022-10-11T03:02:35.652Z,4.85
2022-10-11T03:06:47.479Z,6.63
2022-10-11T03:08:52.315Z,5.95
2022-10-11T03:10:57.159Z,5.10
2022-10-11T03:13:01.872Z,4.28
2022-10-11T03:15:07.441Z,4.57
2022-10-11T03:17:35.107Z,5.60
2022-10-11T03:19:37.946Z,5.63
2022-10-11T03:21:45.435Z,5.32
2022-10-11T03:23:50.329Z,4.80
2022-10-11T03:25:55.105Z,5.95
2022-10-11T03:27:59.850Z,4.80
2022-10-11T03:30:05.470Z,5.95
2022-10-11T03:32:12.939Z,5.68
2022-10-11T03:34:17.764Z,5.65
2022-10-11T03:36:22.614Z,5.18
2022-10-11T03:38:29.975Z,4.35
2022-10-11T03:40:34.939Z,4.82
2022-10-11T03:42:40.254Z,5.30
2022-10-11T03:46:49.553Z,4.45
2022-10-11T03:48:54.277Z,5.57
2022-10-11T03:50:59.054Z,5.50
2022-10-11T03:53:03.810Z,7.30
2022-10-11T03:55:12.079Z,5.72
2022-10-11T03:57:16.868Z,5.82
2022-10-11T03:59:21.778Z,5.78
2022-10-11T04:01:26.567Z,6.70
2022-10-11T04:03:31.430Z,5.80
2022-10-11T04:05:36.382Z,6.20
2022-10-11T04:07:41.398Z,6.20
2022-10-11T04:09:46.182Z,6.80
2022-10-11T04:11:53.608Z,6.60
2022-10-11T04:13:58.418Z,6.07
2022-10-11T04:16:03.573Z,5.93
2022-10-11T04:18:09.248Z,6.10
2022-10-11T04:20:14.230Z,6.03
2022-10-11T04:22:19.554Z,6.30
2022-10-11T04:24:24.286Z,6.10
2022-10-11T04:26:29.048Z,6.97
2022-10-11T04:28:37.019Z,5.90
2022-10-11T04:30:41.840Z,6.10
2022-10-11T04:32:47.040Z,6.55
2022-10-11T04:34:51.859Z,6.18
2022-10-11T04:36:56.614Z,6.28
2022-10-11T04:39:01.782Z,6.95
2022-10-11T04:43:16.740Z,6.07
2022-10-11T04:45:24.381Z,5.15
2022-10-11T04:47:29.239Z,6.93
2022-10-11T04:49:34.262Z,6.50
2022-10-11T04:51:39.065Z,6.80
2022-10-11T04:53:43.851Z,6.72
2022-10-11T04:55:57.796Z,6.80
2022-10-11T04:58:02.519Z,7.38
2022-10-11T05:00:08.572Z,8.20
2022-10-11T05:02:16.092Z,7.95
2022-10-11T05:04:20.902Z,6.72
2022-10-11T05:06:25.620Z,7.18
2022-10-11T05:08:30.391Z,8.23
2022-10-11T05:10:35.210Z,7.60
2022-10-11T05:12:39.937Z,6.93
2022-10-11T05:14:44.804Z,6.60
2022-10-11T05:16:49.720Z,6.97
2022-10-11T05:18:57.111Z,7.28
2022-10-11T05:21:03.321Z,8.25
2022-10-11T05:23:08.526Z,8.38
2022-10-11T05:27:17.863Z,7.68
2022-10-11T05:29:22.664Z,7.68
2022-10-11T05:31:27.449Z,8.32
2022-10-11T05:33:32.183Z,7.35
2022-10-11T05:35:39.509Z,10.38
2022-10-11T05:37:44.224Z,7.18
2022-10-11T05:39:49.721Z,9.20
2022-10-11T05:41:54.686Z,7.90
2022-10-11T05:43:59.487Z,8.27
2022-10-11T05:46:04.439Z,10.05
2022-10-11T05:50:14.047Z,9.27
2022-10-11T05:52:21.656Z,9.85
2022-10-11T05:54:26.353Z,9.52
2022-10-11T05:56:31.139Z,10.73
2022-10-11T05:58:35.950Z,8.48
2022-10-11T06:00:41.481Z,8.85
2022-10-11T06:02:46.206Z,7.90
2022-10-11T06:04:51.449Z,8.52
2022-10-11T06:09:03.346Z,8.10
2022-10-11T06:11:13.566Z,11.15
2022-10-11T06:13:18.528Z,10.27
2022-10-11T06:15:23.352Z,10.43
2022-10-11T06:17:28.322Z,9.00
2022-10-11T06:19:33.119Z,10.15
2022-10-11T06:21:38.437Z,9.75
2022-10-11T06:23:43.129Z,9.88
2022-10-11T06:25:58.987Z,8.75
2022-10-11T06:28:03.714Z,11.60
2022-10-11T06:30:09.941Z,10.95
2022-10-11T06:32:15.346Z,10.27
2022-10-11T06:34:20.130Z,10.43
2022-10-11T06:36:24.889Z,9.43
2022-10-11T06:38:29.694Z,8.95
2022-10-11T06:40:34.418Z,8.23
2022-10-11T06:42:41.761Z,9.15
2022-10-11T06:44:46.489Z,8.80
2022-10-11T06:46:51.291Z,7.85
2022-10-11T06:48:56.748Z,8.73
2022-10-11T06:51:01.799Z,7.97
2022-10-11T06:53:06.605Z,9.18
2022-10-11T06:55:11.913Z,8.57
2022-10-11T06:57:16.663Z,9.48
2022-10-11T06:59:24.207Z,8.25
2022-10-11T07:01:30.179Z,9.30
2022-10-11T07:03:35.390Z,9.48
2022-10-11T07:05:40.217Z,9.63
2022-10-11T07:07:44.958Z,8.90
2022-10-11T07:09:49.687Z,8.18
2022-10-11T07:11:54.419Z,8.18
2022-10-11T07:14:00.720Z,7.90
2022-10-11T07:16:10.466Z,8.05
2022-10-11T07:18:15.198Z,9.10
2022-10-11T07:20:20.010Z,8.70
2022-10-11T07:22:24.865Z,8.25
2022-10-11T07:24:29.753Z,9.00
2022-10-11T07:26:38.503Z,8.50
2022-10-11T07:28:44.850Z,9.73
2022-10-11T07:30:49.903Z,8.57
2022-10-11T07:32:57.222Z,9.75
2022-10-11T07:35:02.060Z,8.73
2022-10-11T07:37:06.827Z,8.57
2022-10-11T07:39:11.670Z,10.45
2022-10-11T07:41:16.571Z,9.38
2022-10-11T07:43:21.320Z,9.55
2022-10-11T07:45:28.822Z,8.98
2022-10-11T07:47:33.564Z,10.07
2022-10-11T07:49:40.965Z,8.77
2022-10-11T07:51:45.755Z,8.90
2022-10-11T07:53:51.982Z,7.65
2022-10-11T07:55:56.757Z,9.35
2022-10-11T07:58:01.512Z,9.65
2022-10-11T08:00:07.483Z,9.73
2022-10-11T08:02:17.207Z,9.73
2022-10-11T08:04:22.159Z,9.25
2022-10-11T08:06:32.804Z,9.60
2022-10-11T08:08:37.895Z,9.32
2022-10-11T08:10:43.800Z,8.95
2022-10-11T08:12:49.969Z,8.55
2022-10-11T08:14:57.393Z,8.50
2022-10-11T08:17:02.433Z,8.90
2022-10-11T08:19:07.907Z,8.25
2022-10-11T08:21:15.957Z,8.60
2022-10-11T08:23:23.377Z,9.15
2022-10-11T08:25:28.085Z,8.55
2022-10-11T08:27:32.893Z,8.25
2022-10-11T08:29:37.625Z,8.95
2022-10-11T08:31:44.562Z,9.15
2022-10-11T08:33:49.294Z,8.77
2022-10-11T08:35:55.188Z,8.82
2022-10-11T08:37:59.906Z,8.60
2022-10-11T08:40:08.430Z,9.18
2022-10-11T08:42:23.086Z,8.93
2022-10-11T08:45:11.863Z,7.93
2022-10-11T08:47:09.062Z,8.20
2022-10-11T08:49:19.287Z,8.15
2022-10-11T08:51:27.587Z,8.32
2022-10-11T08:53:46.015Z,7.43
2022-10-11T08:55:56.594Z,7.80
2022-10-11T08:58:02.209Z,8.57
2022-10-11T09:00:11.221Z,8.35
2022-10-11T09:02:38.963Z,8.23
2022-10-11T09:04:55.548Z,7.93
2022-10-11T09:07:07.775Z,8.82
2022-10-11T09:09:45.349Z,9.88
2022-10-11T09:12:07.463Z,10.10
2022-10-11T09:14:34.173Z,8.63
2022-10-11T09:16:55.528Z,6.68
2022-10-11T09:19:21.158Z,7.45
2022-10-11T09:21:33.412Z,8.70
2022-10-11T09:23:53.305Z,7.85
2022-10-11T09:26:04.435Z,6.47
2022-10-11T09:28:19.306Z,8.50
2022-10-11T09:30:24.212Z,8.43
2022-10-11T09:32:34.898Z,10.20
2022-10-11T09:34:40.869Z,8.63
2022-10-11T09:36:52.842Z,8.60
2022-10-11T09:39:06.765Z,8.07
2022-10-11T09:41:19.623Z,7.43
2022-10-11T09:43:27.171Z,7.82
2022-10-11T09:45:31.948Z,10.00
2022-10-11T09:47:36.775Z,8.63
2022-10-11T09:49:50.244Z,9.48
2022-10-11T09:51:58.017Z,8.73
2022-10-11T09:54:05.556Z,8.73
2022-10-11T09:56:10.431Z,9.25
2022-10-11T09:58:31.620Z,7.72
2022-10-11T10:00:36.486Z,7.65
2022-10-11T10:02:46.975Z,9.05
2022-10-11T10:05:02.734Z,8.32
2022-10-11T10:09:30.527Z,7.43
2022-10-11T10:11:39.514Z,7.00
2022-10-11T10:13:50.095Z,6.75
2022-10-11T10:15:58.715Z,6.72
2022-10-11T10:18:03.906Z,6.78
2022-10-11T10:22:20.465Z,6.97
2022-10-11T10:24:37.412Z,6.78
2022-10-11T10:26:42.720Z,7.45
2022-10-11T10:29:02.628Z,6.40
2022-10-11T10:31:07.477Z,7.30
2022-10-11T10:33:16.969Z,17.92
2022-10-11T10:35:36.747Z,8.38
2022-10-11T10:37:46.705Z,7.43
2022-10-11T10:39:57.485Z,7.57
2022-10-11T10:42:06.311Z,10.27
2022-10-11T10:44:15.437Z,7.78
2022-10-11T10:46:32.599Z,6.72
2022-10-11T10:49:19.083Z,9.88
2022-10-11T10:51:16.783Z,7.38
2022-10-11T10:53:28.287Z,6.57
2022-10-11T10:55:40.404Z,7.47
2022-10-11T10:57:57.274Z,8.00
2022-10-11T11:00:15.745Z,7.00
2022-10-11T11:02:41.466Z,8.07
2022-10-11T11:04:54.420Z,7.72
2022-10-11T11:07:06.823Z,5.55
2022-10-11T11:09:32.728Z,5.07
2022-10-11T11:11:47.904Z,6.55
2022-10-11T11:14:01.206Z,6.82
2022-10-11T11:16:16.328Z,6.00
2022-10-11T11:18:31.733Z,6.15
2022-10-11T11:20:48.675Z,6.35
2022-10-11T11:23:02.926Z,6.30
2022-10-11T11:25:20.388Z,6.47
2022-10-11T11:27:43.291Z,6.55
2022-10-11T11:29:56.524Z,5.53
2022-10-11T11:32:13.710Z,6.57
2022-10-11T11:34:25.491Z,6.38
2022-10-11T11:36:40.002Z,6.68
2022-10-11T11:38:49.595Z,6.53
2022-10-11T11:40:58.817Z,6.13
2022-10-11T11:43:09.512Z,5.90
2022-10-11T11:45:21.697Z,5.13
2022-10-11T11:47:35.713Z,6.75
2022-10-11T11:52:14.457Z,6.10
2022-10-11T11:54:31.298Z,5.88
2022-10-11T11:56:50.883Z,5.60
2022-10-11T11:59:03.297Z,6.47
2022-10-11T12:01:20.169Z,6.80
2022-10-11T12:03:37.931Z,5.63
2022-10-11T12:06:20.409Z,7.10
2022-10-11T12:08:30.181Z,5.80
2022-10-11T12:10:39.020Z,6.85
2022-10-11T12:12:44.557Z,6.57
2022-10-11T12:15:07.598Z,6.05
2022-10-11T12:17:21.828Z,7.43
2022-10-11T12:19:30.131Z,6.43
2022-10-11T12:21:36.542Z,6.85
2022-10-11T12:23:46.437Z,6.35
2022-10-11T12:26:26.234Z,4.70
2022-10-11T12:29:12.639Z,6.60
2022-10-11T12:31:26.309Z,5.43
2022-10-11T12:33:52.137Z,6.07
2022-10-11T12:36:08.270Z,6.35
2022-10-11T12:38:19.516Z,4.85
2022-10-11T12:40:41.822Z,5.38
2022-10-11T12:43:14.665Z,5.68
2022-10-11T12:45:35.648Z,6.20
2022-10-11T12:47:50.028Z,7.00
2022-10-11T12:50:17.306Z,6.32
2022-10-11T12:52:32.444Z,5.85
2022-10-11T12:55:04.829Z,6.22
2022-10-11T12:57:46.107Z,5.57
2022-10-11T12:59:52.629Z,6.00
2022-10-11T13:02:00.894Z,5.88
2022-10-11T13:04:13.819Z,6.00
2022-10-11T13:06:22.363Z,5.78
2022-10-11T13:08:31.780Z,6.05
2022-10-11T13:10:43.949Z,5.57
2022-10-11T13:12:51.223Z,5.53
2022-10-11T13:15:04.247Z,5.63
2022-10-11T13:17:17.772Z,5.20
2022-10-11T13:19:27.364Z,5.55
2022-10-11T13:21:36.314Z,6.40
2022-10-11T13:23:41.618Z,5.25
2022-10-11T13:25:46.544Z,4.72
2022-10-11T13:27:54.125Z,6.00
2022-10-11T13:30:03.219Z,6.03
2022-10-11T13:32:10.725Z,6.53
2022-10-11T13:34:19.739Z,6.45
2022-10-11T13:36:31.861Z,5.95
2022-10-11T13:38:40.778Z,6.22
2022-10-11T13:40:50.753Z,6.30
2022-10-11T13:42:57.863Z,7.07
2022-10-11T13:45:03.479Z,6.53
2022-10-11T13:47:08.864Z,5.40
2022-10-11T13:49:31.583Z,4.60
2022-10-11T13:51:40.256Z,5.45
2022-10-11T13:54:00.177Z,6.28
2022-10-11T13:56:08.532Z,5.75
2022-10-11T13:58:19.726Z,5.43
2022-10-11T14:00:28.514Z,5.35
2022-10-11T14:02:35.146Z,6.00
2022-10-11T14:04:43.714Z,5.13
2022-10-11T14:06:56.207Z,4.88
2022-10-11T14:09:01.111Z,7.20
2022-10-11T14:11:06.972Z,5.40
2022-10-11T14:13:27.078Z,4.50
2022-10-11T14:15:34.866Z,5.38
2022-10-11T14:17:43.688Z,4.75
2022-10-11T14:19:50.668Z,5.32
2022-10-11T14:21:58.703Z,7.25
2022-10-11T14:24:07.890Z,6.60
2022-10-11T14:26:17.753Z,4.32
2022-10-11T14:28:23.594Z,4.25
2022-10-11T14:30:31.596Z,4.45
2022-10-11T14:32:37.375Z,5.40
2022-10-11T14:34:42.234Z,4.55
2022-10-11T14:36:47.090Z,6.35
2022-10-11T14:38:55.079Z,4.60
2022-10-11T14:40:59.840Z,5.85
2022-10-11T14:43:04.547Z,4.85
2022-10-11T14:45:10.428Z,5.65
2022-10-11T14:47:18.485Z,6.07
2022-10-11T14:49:25.213Z,4.82
2022-10-11T14:51:34.430Z,6.10
2022-10-11T14:53:42.162Z,4.32
2022-10-11T14:55:49.876Z,4.95
2022-10-11T14:57:55.427Z,4.82
2022-10-11T15:00:00.185Z,5.22
2022-10-11T15:02:06.763Z,5.30
2022-10-11T15:04:11.696Z,5.57
2022-10-11T15:06:20.941Z,5.28
2022-10-11T15:08:25.684Z,6.03
2022-10-11T15:10:34.704Z,6.07
2022-10-11T15:12:42.005Z,5.20
2022-10-11T15:14:46.845Z,5.53
2022-10-11T15:16:51.657Z,5.05
2022-10-11T15:18:56.366Z,5.00
2022-10-11T15:21:01.134Z,5.22
2022-10-11T15:23:09.530Z,5.25
2022-10-11T15:25:14.445Z,5.22
2022-10-11T15:27:19.817Z,5.50
2022-10-11T15:31:31.774Z,5.85
2022-10-11T15:33:36.576Z,5.88
2022-10-11T15:35:41.393Z,5.97
2022-10-11T15:37:46.567Z,5.82
2022-10-11T15:41:55.866Z,5.90
2022-10-11T15:44:00.592Z,5.97
2022-10-11T15:46:09.301Z,6.50
2022-10-11T15:48:17.221Z,5.95
2022-10-11T15:50:34.260Z,6.40
2022-10-11T15:52:39.051Z,5.88
2022-10-11T15:54:43.801Z,6.70
2022-10-11T15:56:48.806Z,6.45
2022-10-11T16:01:01.957Z,5.78
2022-10-11T16:03:09.324Z,5.43
2022-10-11T16:05:14.183Z,5.80
2022-10-11T16:07:18.996Z,7.53
2022-10-11T16:09:23.770Z,6.97
2022-10-11T16:11:28.507Z,5.60
2022-10-11T16:13:33.449Z,6.15
2022-10-11T16:15:41.233Z,5.53
2022-10-11T16:17:46.652Z,6.20
2022-10-11T16:19:53.937Z,6.50
2022-10-11T16:21:58.666Z,6.13
2022-10-11T16:24:03.568Z,5.35
2022-10-11T16:26:10.635Z,6.15
2022-10-11T16:28:15.732Z,7.07
2022-10-11T16:30:21.915Z,6.65
2022-10-11T16:32:27.477Z,5.95
2022-10-11T16:34:32.250Z,6.10
2022-10-11T16:36:40.828Z,6.05
2022-10-11T16:38:45.690Z,6.22
2022-10-11T16:40:50.540Z,5.72
2022-10-11T16:42:55.280Z,5.97
2022-10-11T16:44:59.990Z,5.43
2022-10-11T16:47:04.728Z,5.82
2022-10-11T16:49:09.669Z,5.90
2022-10-11T16:51:14.386Z,5.25
2022-10-11T16:53:21.984Z,6.55
2022-10-11T16:55:27.143Z,6.10
2022-10-11T16:57:31.936Z,5.50
2022-10-11T16:59:36.710Z,5.20
2022-10-11T17:01:41.789Z,5.30
2022-10-11T17:05:51.169Z,6.38
2022-10-11T17:07:56.096Z,6.95
2022-10-11T17:10:03.838Z,6.13
2022-10-11T17:12:10.270Z,6.43
2022-10-11T17:14:15.939Z,6.85
2022-10-11T17:16:21.053Z,7.85
2022-10-11T17:20:30.256Z,6.28
2022-10-11T17:22:35.116Z,8.15
2022-10-11T17:24:40.657Z,8.68
2022-10-11T17:26:48.039Z,7.53
2022-10-11T17:28:52.886Z,5.57
2022-10-11T17:30:58.482Z,6.35
2022-10-11T17:33:03.328Z,6.30
2022-10-11T17:35:09.178Z,5.57
2022-10-11T17:37:14.119Z,5.75
2022-10-11T17:39:20.922Z,5.70
2022-10-11T17:41:30.915Z,6.43
2022-10-11T17:43:40.214Z,5.35
2022-10-11T17:45:44.996Z,7.47
2022-10-11T17:47:49.685Z,6.30
2022-10-11T17:49:54.532Z,6.88
2022-10-11T17:51:59.318Z,6.38
2022-10-11T17:54:04.427Z,7.13
2022-10-11T17:56:11.370Z,6.40
2022-10-11T17:58:16.113Z,6.95
2022-10-11T18:00:23.784Z,6.20
2022-10-11T18:02:28.590Z,6.18
2022-10-11T18:04:33.397Z,6.20
2022-10-11T18:06:43.653Z,6.10
2022-10-11T18:08:48.777Z,6.32
2022-10-11T18:10:53.698Z,6.43
2022-10-11T18:13:01.027Z,6.40
2022-10-11T18:15:08.756Z,6.97
2022-10-11T18:17:16.085Z,6.65
2022-10-11T18:19:21.064Z,5.93
2022-10-11T18:21:29.867Z,7.10
2022-10-11T18:23:38.498Z,6.05
2022-10-11T18:25:43.213Z,6.00
2022-10-11T18:27:47.941Z,6.05
2022-10-11T18:29:52.682Z,6.18
2022-10-11T18:31:57.437Z,7.82
2022-10-11T18:34:05.297Z,7.10
2022-10-11T18:36:13.622Z,7.82
2022-10-11T18:38:18.343Z,6.40
2022-10-11T18:40:23.085Z,6.00
2022-10-11T18:42:27.853Z,6.18
2022-10-11T18:44:33.115Z,6.88
2022-10-11T18:48:43.597Z,6.75
2022-10-11T18:50:50.910Z,6.50
2022-10-11T18:52:55.780Z,6.45
2022-10-11T18:55:02.867Z,7.38
2022-10-11T18:57:07.690Z,6.35
2022-10-11T18:59:13.369Z,6.53
2022-10-11T19:01:20.294Z,6.60
2022-10-11T19:03:25.082Z,6.28
2022-10-11T19:05:30.204Z,6.57
2022-10-11T19:09:43.591Z,6.57
2022-10-11T19:11:48.294Z,6.35
2022-10-11T19:13:58.521Z,6.35
2022-10-11T19:16:08.511Z,6.15
2022-10-11T19:18:17.037Z,6.25
2022-10-11T19:20:24.356Z,7.47
2022-10-11T19:22:29.241Z,7.88
2022-10-11T19:24:37.036Z,7.78
2022-10-11T19:26:43.992Z,6.68
2022-10-11T19:28:49.211Z,6.95
2022-10-11T19:30:53.997Z,6.55
2022-10-11T19:32:58.834Z,5.93
2022-10-11T19:35:03.576Z,6.38
2022-10-11T19:37:13.210Z,5.70
2022-10-11T19:39:19.821Z,6.53
2022-10-11T19:41:29.081Z,6.00
2022-10-11T19:43:33.894Z,6.60
2022-10-11T19:45:38.670Z,6.78
2022-10-11T19:47:43.459Z,6.95
2022-10-11T19:49:48.193Z,6.30
2022-10-11T19:51:53.135Z,6.25
2022-10-11T19:53:58.966Z,6.10
2022-10-11T19:56:04.857Z,5.80
2022-10-11T19:58:12.167Z,6.00
2022-10-11T20:00:17.976Z,5.97
2022-10-11T20:02:22.711Z,5.68
2022-10-11T20:04:51.650Z,6.22
2022-10-11T20:06:52.326Z,6.15
2022-10-11T20:09:17.008Z,7.25
2022-10-11T20:11:23.269Z,6.40
2022-10-11T20:13:34.828Z,6.47
2022-10-11T20:15:40.037Z,6.45
2022-10-11T20:17:51.785Z,6.13
2022-10-11T20:19:56.490Z,6.35
2022-10-11T20:22:01.370Z,6.78
2022-10-11T20:24:08.577Z,6.88
2022-10-11T20:26:15.991Z,6.38
2022-10-11T20:28:20.702Z,6.38
2022-10-11T20:30:28.205Z,5.95
2022-10-11T20:32:32.884Z,5.75
2022-10-11T20:34:39.554Z,6.07
2022-10-11T20:36:48.872Z,6.30
2022-10-11T20:38:54.348Z,6.93
2022-10-11T20:40:59.539Z,5.72
2022-10-11T20:45:09.853Z,6.10
2022-10-11T20:47:17.235Z,6.82
2022-10-11T20:49:22.675Z,6.35
2022-10-11T20:51:27.746Z,5.82
2022-10-11T20:53:32.962Z,6.43
2022-10-11T20:57:42.202Z,5.57
2022-10-11T20:59:46.955Z,6.05
2022-10-11T21:01:51.806Z,6.35
2022-10-11T21:04:00.432Z,6.35
2022-10-11T21:06:05.297Z,6.70
2022-10-11T21:08:10.355Z,5.63
2022-10-11T21:10:15.040Z,5.40
2022-10-11T21:12:19.807Z,5.53
2022-10-11T21:14:24.734Z,6.20
2022-10-11T21:16:29.882Z,5.97
2022-10-11T21:18:34.561Z,6.25
2022-10-11T21:20:43.527Z,6.45
2022-10-11T21:22:48.267Z,5.47
2022-10-11T21:24:53.058Z,5.50
2022-10-11T21:27:00.878Z,6.93
2022-10-11T21:29:07.614Z,5.47
2022-10-11T21:31:14.568Z,6.07
2022-10-11T21:33:19.279Z,6.78
2022-10-11T21:35:24.255Z,7.00
2022-10-11T21:37:31.939Z,6.43
2022-10-11T21:39:37.130Z,6.63
2022-10-11T21:41:42.336Z,6.85
2022-10-11T21:45:52.215Z,6.57
2022-10-11T21:47:57.319Z,7.03
2022-10-11T21:50:02.057Z,6.82
2022-10-11T21:52:07.770Z,6.70
2022-10-11T21:54:15.080Z,7.40
2022-10-11T21:56:19.907Z,6.80
2022-10-11T21:58:24.810Z,7.53
2022-10-11T22:00:29.563Z,6.53
2022-10-11T22:02:34.528Z,7.32
2022-10-11T22:06:43.966Z,7.30
2022-10-11T22:08:48.992Z,7.30
2022-10-11T22:10:59.560Z,7.82
2022-10-11T22:13:04.525Z,8.23
2022-10-11T22:15:10.715Z,8.45
2022-10-11T22:17:15.519Z,8.30
2022-10-11T22:19:20.219Z,8.07
2022-10-11T22:21:26.334Z,8.45
2022-10-11T22:23:31.120Z,9.00
2022-10-11T22:25:37.514Z,9.10
2022-10-11T22:27:44.889Z,8.38
2022-10-11T22:29:49.710Z,7.93
2022-10-11T22:31:54.429Z,9.68
2022-10-11T22:34:00.879Z,8.20
2022-10-11T22:36:09.002Z,9.35
2022-10-11T22:38:13.777Z,8.38
2022-10-11T22:40:18.743Z,8.32
2022-10-11T22:42:27.575Z,9.57
2022-10-11T22:44:35.174Z,8.32
2022-10-11T22:46:39.897Z,8.95
2022-10-11T22:48:44.832Z,8.70
2022-10-11T22:50:50.186Z,8.50
2022-10-11T22:54:59.452Z,8.55
2022-10-11T22:57:04.149Z,8.50
2022-10-11T22:59:09.639Z,9.15
2022-10-11T23:01:18.625Z,8.93
2022-10-11T23:03:23.429Z,9.38
2022-10-11T23:05:28.534Z,9.45
2022-10-11T23:09:37.883Z,10.13
2022-10-11T23:11:42.635Z,9.88
2022-10-11T23:13:47.510Z,10.35
2022-10-11T23:15:52.377Z,10.70
2022-10-11T23:17:59.785Z,11.18
2022-10-11T23:20:04.741Z,10.85
2022-10-11T23:22:09.464Z,9.80
2022-10-11T23:24:14.409Z,11.05
2022-10-11T23:26:19.693Z,12.25
2022-10-11T23:30:29.058Z,10.65
2022-10-11T23:32:34.295Z,12.10
2022-10-11T23:34:41.605Z,11.52
2022-10-11T23:36:46.565Z,12.38
2022-10-11T23:38:53.725Z,12.68
2022-10-11T23:40:58.455Z,12.10
2022-10-11T23:43:03.231Z,12.45
2022-10-11T23:45:09.247Z,12.73
2022-10-11T23:47:13.954Z,11.98
2022-10-11T23:49:18.769Z,11.30
2022-10-11T23:51:26.194Z,11.80
2022-10-11T23:53:31.116Z,10.77
2022-10-11T23:55:36.621Z,11.40
2022-10-11T23:57:41.394Z,12.00
2022-10-11T23:59:46.813Z,12.68
